createdAt,value
2018-04-10T00:01:49.335Z,7.27
2018-04-10T00:04:22.248Z,7.80
2018-04-10T00:06:59.649Z,7.03
2018-04-10T00:09:47.193Z,6.77
2018-04-10T00:12:17.262Z,7.00
2018-04-10T00:14:44.757Z,7.23
2018-04-10T00:17:12.590Z,7.53
2018-04-10T00:19:40.057Z,7.07
2018-04-10T00:22:07.922Z,6.57
2018-04-10T00:24:35.413Z,8.27
2018-04-10T00:27:02.859Z,7.20
2018-04-10T00:29:31.490Z,6.33
2018-04-10T00:31:58.923Z,6.80
2018-04-10T00:34:26.350Z,7.43
2018-04-10T00:36:53.799Z,7.20
2018-04-10T00:39:21.230Z,8.20
2018-04-10T00:41:48.665Z,6.40
2018-04-10T00:44:16.102Z,6.60
2018-04-10T00:46:43.547Z,6.37
2018-04-10T00:49:10.980Z,7.97
2018-04-10T00:51:38.807Z,7.67
2018-04-10T00:54:06.252Z,6.60
2018-04-10T00:56:33.688Z,5.83
2018-04-10T00:59:01.118Z,7.27
2018-04-10T01:01:28.554Z,6.23
2018-04-10T01:03:55.986Z,7.63
2018-04-10T01:06:23.423Z,7.37
2018-04-10T01:08:50.877Z,6.97
2018-04-10T01:11:18.315Z,7.77
2018-04-10T01:13:45.744Z,5.90
2018-04-10T01:16:13.589Z,6.37
2018-04-10T01:18:41.009Z,6.13
2018-04-10T01:21:08.454Z,7.57
2018-04-10T01:23:35.900Z,6.40
2018-04-10T01:26:03.326Z,7.03
2018-04-10T01:28:30.771Z,7.27
2018-04-10T01:30:58.224Z,6.57
2018-04-10T01:33:25.706Z,6.33
2018-04-10T01:35:53.144Z,6.60
2018-04-10T01:38:20.592Z,6.50
2018-04-10T01:40:48.018Z,6.00
2018-04-10T01:43:15.455Z,6.30
2018-04-10T01:45:42.879Z,6.77
2018-04-10T01:48:10.320Z,6.33
2018-04-10T01:50:37.754Z,7.13
2018-04-10T01:53:05.247Z,7.27
2018-04-10T01:55:33.431Z,6.90
2018-04-10T01:58:01.271Z,7.27
2018-04-10T02:00:28.720Z,7.33
2018-04-10T02:02:56.157Z,6.83
2018-04-10T02:05:23.581Z,6.63
2018-04-10T02:07:51.439Z,7.10
2018-04-10T02:10:19.291Z,6.87
2018-04-10T02:12:46.739Z,6.60
2018-04-10T02:15:14.183Z,6.13
2018-04-10T02:17:41.636Z,6.67
2018-04-10T02:20:09.087Z,8.17
2018-04-10T02:22:36.549Z,6.33
2018-04-10T02:25:04.044Z,8.13
2018-04-10T02:27:31.487Z,6.80
2018-04-10T02:29:58.934Z,6.30
2018-04-10T02:32:26.380Z,6.40
2018-04-10T02:34:53.814Z,6.67
2018-04-10T02:37:21.256Z,6.80
2018-04-10T02:39:48.715Z,6.40
2018-04-10T02:42:16.183Z,7.17
2018-04-10T02:44:43.623Z,6.40
2018-04-10T02:47:11.075Z,7.27
2018-04-10T02:49:38.894Z,6.60
2018-04-10T02:52:06.328Z,7.30
2018-04-10T02:54:33.763Z,6.10
2018-04-10T02:57:01.182Z,7.13
2018-04-10T02:59:29.030Z,6.40
2018-04-10T03:01:56.480Z,7.00
2018-04-10T03:04:23.909Z,6.50
2018-04-10T03:06:51.333Z,6.40
2018-04-10T03:09:18.778Z,8.40
2018-04-10T03:11:46.210Z,7.20
2018-04-10T03:14:13.660Z,6.80
2018-04-10T03:16:41.089Z,7.53
2018-04-10T03:19:08.530Z,7.60
2018-04-10T03:21:35.964Z,7.40
2018-04-10T03:24:03.796Z,7.17
2018-04-10T03:26:31.227Z,6.97
2018-04-10T03:28:58.696Z,6.53
2018-04-10T03:31:26.152Z,6.10
2018-04-10T03:33:53.615Z,7.80
2018-04-10T03:36:21.084Z,7.40
2018-04-10T03:38:48.742Z,6.90
2018-04-10T03:41:16.204Z,7.63
2018-04-10T03:43:43.702Z,7.10
2018-04-10T03:46:11.555Z,6.97
2018-04-10T03:48:39.427Z,6.90
2018-04-10T03:51:07.299Z,6.60
2018-04-10T03:53:57.927Z,7.30
2018-04-10T03:56:25.385Z,6.50
2018-04-10T03:58:52.850Z,6.80
2018-04-10T04:01:20.312Z,5.90
2018-04-10T04:03:47.811Z,7.37
2018-04-10T04:06:15.659Z,6.80
2018-04-10T04:08:43.167Z,6.37
2018-04-10T04:11:10.644Z,6.20
2018-04-10T04:13:38.106Z,6.30
2018-04-10T04:16:05.596Z,7.10
2018-04-10T04:18:44.976Z,6.17
2018-04-10T04:21:24.303Z,7.20
2018-04-10T04:23:52.606Z,6.70
2018-04-10T04:26:20.059Z,6.47
2018-04-10T04:28:47.523Z,5.93
2018-04-10T04:31:15.696Z,5.67
2018-04-10T04:33:43.187Z,5.70
2018-04-10T04:36:10.644Z,6.93
2018-04-10T04:38:38.109Z,7.47
2018-04-10T04:41:05.555Z,8.27
2018-04-10T04:43:33.028Z,7.30
2018-04-10T04:46:00.499Z,8.10
2018-04-10T04:48:28.350Z,7.17
2018-04-10T04:50:55.799Z,8.07
2018-04-10T04:53:23.258Z,9.30
2018-04-10T04:55:50.702Z,6.77
2018-04-10T04:58:18.159Z,8.30
2018-04-10T05:00:45.607Z,7.30
2018-04-10T05:03:13.068Z,7.40
2018-04-10T05:05:40.523Z,8.00
2018-04-10T05:08:07.972Z,8.50
2018-04-10T05:10:35.433Z,7.53
2018-04-10T05:13:02.893Z,8.00
2018-04-10T05:15:30.351Z,8.63
2018-04-10T05:17:57.791Z,7.70
2018-04-10T05:20:25.248Z,7.47
2018-04-10T05:22:52.719Z,7.07
2018-04-10T05:25:20.183Z,8.03
2018-04-10T05:27:47.636Z,9.10
2018-04-10T05:30:15.098Z,8.07
2018-04-10T05:32:42.995Z,7.40
2018-04-10T05:35:11.155Z,8.43
2018-04-10T05:37:38.615Z,8.67
2018-04-10T05:40:06.873Z,8.90
2018-04-10T05:42:34.327Z,9.47
2018-04-10T05:45:01.795Z,9.23
2018-04-10T05:47:29.302Z,9.60
2018-04-10T05:49:56.757Z,9.90
2018-04-10T05:52:24.231Z,10.37
2018-04-10T05:54:51.703Z,8.87
2018-04-10T05:57:19.163Z,8.40
2018-04-10T05:59:46.627Z,9.17
2018-04-10T06:02:14.086Z,8.87
2018-04-10T06:04:41.560Z,10.60
2018-04-10T06:07:09.004Z,9.90
2018-04-10T06:09:36.459Z,9.73
2018-04-10T06:12:03.898Z,9.33
2018-04-10T06:14:31.540Z,9.90
2018-04-10T06:16:58.951Z,12.00
2018-04-10T06:19:26.385Z,12.47
2018-04-10T06:21:53.828Z,12.60
2018-04-10T06:24:21.275Z,11.10
2018-04-10T06:26:48.729Z,12.03
2018-04-10T06:29:16.176Z,11.47
2018-04-10T06:31:43.622Z,10.53
2018-04-10T06:34:11.075Z,10.03
2018-04-10T06:36:38.519Z,11.87
2018-04-10T06:39:05.951Z,11.33
2018-04-10T06:41:33.408Z,10.17
2018-04-10T06:44:01.050Z,10.20
2018-04-10T06:46:28.499Z,10.90
2018-04-10T06:48:56.286Z,11.23
2018-04-10T06:51:23.710Z,10.47
2018-04-10T06:53:51.136Z,9.83
2018-04-10T06:56:19.202Z,10.17
2018-04-10T06:58:46.635Z,12.80
2018-04-10T07:01:21.814Z,11.00
2018-04-10T07:03:49.246Z,11.80
2018-04-10T07:06:16.686Z,13.03
2018-04-10T07:26:19.170Z,12.20
2018-04-10T07:28:51.911Z,11.60
2018-04-10T07:31:19.371Z,12.10
2018-04-10T07:34:07.222Z,12.47
2018-04-10T07:36:34.684Z,11.10
2018-04-10T07:39:08.042Z,11.37
2018-04-10T07:41:36.611Z,11.97
2018-04-10T07:44:06.251Z,12.20
2018-04-10T07:46:33.717Z,11.70
2018-04-10T07:49:01.183Z,10.77
2018-04-10T07:51:42.202Z,11.03
2018-04-10T07:54:09.690Z,11.10
2018-04-10T07:56:37.139Z,11.83
2018-04-10T07:59:10.936Z,12.17
2018-04-10T08:01:38.402Z,12.10
2018-04-10T08:04:05.907Z,11.70
2018-04-10T08:06:33.343Z,12.40
2018-04-10T08:09:00.792Z,12.77
2018-04-10T08:11:28.231Z,11.80
2018-04-10T08:13:55.690Z,13.50
2018-04-10T08:16:23.128Z,12.47
2018-04-10T08:18:50.571Z,13.20
2018-04-10T08:21:17.995Z,12.40
2018-04-10T08:23:45.447Z,13.03
2018-04-10T08:26:12.884Z,13.57
2018-04-10T08:28:40.319Z,12.87
2018-04-10T08:31:07.774Z,12.47
2018-04-10T08:33:35.204Z,11.70
2018-04-10T08:36:03.043Z,12.23
2018-04-10T08:38:30.488Z,12.00
2018-04-10T08:40:57.938Z,14.00
2018-04-10T08:43:25.371Z,13.33
2018-04-10T08:45:52.811Z,12.97
2018-04-10T08:48:20.254Z,13.07
2018-04-10T08:50:47.686Z,11.73
2018-04-10T08:53:15.122Z,13.43
2018-04-10T08:55:42.571Z,12.30
2018-04-10T08:58:10.027Z,12.97
2018-04-10T09:00:37.479Z,13.93
2018-04-10T09:03:04.921Z,13.37
2018-04-10T09:05:32.378Z,13.97
2018-04-10T09:07:59.831Z,11.63
2018-04-10T09:10:27.274Z,11.77
2018-04-10T09:12:54.709Z,11.50
2018-04-10T09:15:22.539Z,11.73
2018-04-10T09:17:49.979Z,11.80
2018-04-10T09:20:17.426Z,11.60
2018-04-10T09:22:44.879Z,11.80
2018-04-10T09:25:12.345Z,11.70
2018-04-10T09:27:39.783Z,10.27
2018-04-10T09:30:07.256Z,10.90
2018-04-10T09:32:34.726Z,12.13
2018-04-10T09:35:02.187Z,10.70
2018-04-10T09:37:29.634Z,10.60
2018-04-10T09:39:57.087Z,10.07
2018-04-10T09:42:24.579Z,10.50
2018-04-10T09:44:52.035Z,10.27
2018-04-10T09:47:20.052Z,9.00
2018-04-10T09:49:47.522Z,8.63
2018-04-10T09:52:15.598Z,8.63
2018-04-10T09:54:43.015Z,8.13
2018-04-10T09:57:10.442Z,8.97
2018-04-10T09:59:37.918Z,8.00
2018-04-10T10:02:05.349Z,8.10
2018-04-10T10:04:32.841Z,8.73
2018-04-10T10:09:38.682Z,7.77
2018-04-10T10:12:06.127Z,7.87
2018-04-10T10:14:34.251Z,7.40
2018-04-10T10:19:40.735Z,7.77
2018-04-10T10:22:10.367Z,7.40
2018-04-10T10:31:48.598Z,6.00
2018-04-10T10:34:20.752Z,5.90
2018-04-10T10:43:11.363Z,4.77
2018-04-10T10:48:31.371Z,4.50
2018-04-10T10:50:58.848Z,5.50
2018-04-10T10:56:43.893Z,5.10
2018-04-10T10:59:23.787Z,4.47
2018-04-10T11:04:27.937Z,5.20
2018-04-10T11:10:24.497Z,4.50
2018-04-10T11:15:25.962Z,4.70
2018-04-10T11:17:54.533Z,3.93
2018-04-10T11:20:21.973Z,3.93
2018-04-10T11:22:49.468Z,4.33
2018-04-10T11:25:17.423Z,3.63
2018-04-10T11:27:45.591Z,3.90
2018-04-10T11:30:17.176Z,3.30
2018-04-10T11:38:22.357Z,2.90
2018-04-10T11:40:49.850Z,2.53
2018-04-10T11:43:17.300Z,2.20
2018-04-10T11:45:49.347Z,2.47
2018-04-10T11:48:25.488Z,2.27
2018-04-10T11:50:53.284Z,2.00
2018-04-10T11:58:57.158Z,2.27
2018-04-10T12:01:24.700Z,2.10
2018-04-10T12:04:01.926Z,1.90
2018-04-10T12:06:29.982Z,1.40
2018-04-10T12:08:57.450Z,1.20
2018-04-10T12:11:24.942Z,1.23
2018-04-10T12:13:52.413Z,1.60
2018-04-10T12:16:20.613Z,1.70
2018-04-10T12:18:48.067Z,1.47
2018-04-10T12:23:59.021Z,1.27
2018-04-10T12:26:26.536Z,1.10
2018-04-10T12:28:54.003Z,1.20
2018-04-10T12:31:21.837Z,1.07
2018-04-10T12:33:49.276Z,1.17
2018-04-10T12:36:16.750Z,1.20
2018-04-10T12:38:48.644Z,1.50
2018-04-10T12:41:26.383Z,1.60
2018-04-10T12:43:54.927Z,1.57
2018-04-10T12:46:23.396Z,1.20
2018-04-10T12:48:51.239Z,1.30
2018-04-10T12:51:18.715Z,1.50
2018-04-10T12:54:04.728Z,1.20
2018-04-10T12:56:32.204Z,1.60
2018-04-10T12:59:12.959Z,1.23
2018-04-10T13:01:40.777Z,1.20
2018-04-10T13:04:08.263Z,1.20
2018-04-10T13:06:41.109Z,1.47
2018-04-10T13:09:10.344Z,1.00
2018-04-10T13:11:41.330Z,1.33
2018-04-10T13:14:12.156Z,1.17
2018-04-10T13:16:39.642Z,1.50
2018-04-10T13:22:04.627Z,1.20
2018-04-10T13:24:32.100Z,1.10
2018-04-10T13:27:07.341Z,1.20
2018-04-10T13:32:23.412Z,1.13
2018-04-10T13:34:50.970Z,1.13
2018-04-10T13:37:29.787Z,1.30
2018-04-10T13:43:04.723Z,1.80
2018-04-10T13:45:32.625Z,1.07
2018-04-10T13:48:28.532Z,1.20
2018-04-10T13:54:12.400Z,1.50
2018-04-10T14:01:49.976Z,1.23
2018-04-10T14:07:09.574Z,1.50
2018-04-10T14:09:37.889Z,1.30
2018-04-10T14:12:06.380Z,1.30
2018-04-10T14:14:33.835Z,1.10
2018-04-10T14:19:42.267Z,1.10
2018-04-10T14:22:11.008Z,1.47
2018-04-10T14:24:47.780Z,1.40
2018-04-10T14:30:08.284Z,1.50
2018-04-10T14:32:40.758Z,1.43
2018-04-10T14:39:18.440Z,1.00
2018-04-10T14:41:49.953Z,1.27
2018-04-10T14:47:23.911Z,1.00
2018-04-10T14:49:52.871Z,1.20
2018-04-10T14:52:25.311Z,1.37
2018-04-10T14:54:55.877Z,1.30
2018-04-10T14:57:25.338Z,1.13
2018-04-10T14:59:52.871Z,1.43
2018-04-10T15:02:20.316Z,1.60
2018-04-10T15:04:48.228Z,1.43
2018-04-10T15:07:15.676Z,2.00
2018-04-10T15:09:43.138Z,1.83
2018-04-10T15:12:11.237Z,1.83
2018-04-10T15:14:38.696Z,1.33
2018-04-10T15:17:13.859Z,1.30
2018-04-10T15:19:41.352Z,1.73
2018-04-10T15:22:12.040Z,1.10
2018-04-10T15:24:39.490Z,1.80
2018-04-10T15:27:06.946Z,1.30
2018-04-10T15:29:34.397Z,1.50
2018-04-10T15:32:04.124Z,1.17
2018-04-10T15:34:39.158Z,1.23
2018-04-10T15:37:07.369Z,1.20
2018-04-10T15:39:34.835Z,1.10
2018-04-10T15:42:02.309Z,1.30
2018-04-10T15:47:55.099Z,0.97
2018-04-10T15:53:06.219Z,1.13
2018-04-10T15:55:34.160Z,1.47
2018-04-10T15:58:01.663Z,1.10
2018-04-10T16:00:40.027Z,1.30
2018-04-10T16:03:07.500Z,1.67
2018-04-10T16:05:35.315Z,1.10
2018-04-10T16:08:02.900Z,1.10
2018-04-10T16:10:30.326Z,1.60
2018-04-10T16:12:57.884Z,1.30
2018-04-10T16:15:25.291Z,1.37
2018-04-10T16:17:53.121Z,1.30
2018-04-10T16:20:33.612Z,1.40
2018-04-10T16:23:04.176Z,1.03
2018-04-10T16:25:32.587Z,1.00
2018-04-10T16:29:24.307Z,1.20
2018-04-10T16:31:51.748Z,1.47
2018-04-10T16:34:38.179Z,1.30
2018-04-10T16:37:05.598Z,1.37
2018-04-10T16:39:33.038Z,1.20
2018-04-10T16:42:00.866Z,1.20
2018-04-10T16:44:28.325Z,1.13
2018-04-10T16:46:55.754Z,1.00
2018-04-10T16:49:23.198Z,1.03
2018-04-10T16:51:50.650Z,1.17
2018-04-10T16:54:18.091Z,1.10
2018-04-10T16:56:45.926Z,1.57
2018-04-10T16:59:13.363Z,1.20
2018-04-10T17:01:40.808Z,0.93
2018-04-10T17:04:08.243Z,1.20
2018-04-10T17:06:35.667Z,0.90
2018-04-10T17:09:03.516Z,1.20
2018-04-10T17:11:30.962Z,0.90
2018-04-10T17:13:58.436Z,1.00
2018-04-10T17:16:25.891Z,1.43
2018-04-10T17:18:53.322Z,0.90
2018-04-10T17:21:20.761Z,1.27
2018-04-10T17:23:48.190Z,1.60
2018-04-10T17:26:15.627Z,1.03
2018-04-10T17:28:43.062Z,1.47
2018-04-10T17:31:10.499Z,1.00
2018-04-10T17:33:37.991Z,1.30
2018-04-10T17:36:05.410Z,1.47
2018-04-10T17:38:32.846Z,1.53
2018-04-10T17:41:00.301Z,1.30
2018-04-10T17:43:27.726Z,1.10
2018-04-10T17:45:55.175Z,1.30
2018-04-10T17:48:22.615Z,1.40
2018-04-10T17:50:50.052Z,1.20
2018-04-10T17:53:18.199Z,1.50
2018-04-10T17:55:45.679Z,1.00
2018-04-10T17:58:13.139Z,0.97
2018-04-10T18:00:40.563Z,1.43
2018-04-10T18:03:08.011Z,1.00
2018-04-10T18:05:35.822Z,0.90
2018-04-10T18:08:03.262Z,1.07
2018-04-10T18:10:30.707Z,1.23
2018-04-10T18:12:58.147Z,1.27
2018-04-10T18:15:25.971Z,0.90
2018-04-10T18:17:53.413Z,0.80
2018-04-10T18:20:20.854Z,1.10
2018-04-10T18:22:48.305Z,1.10
2018-04-10T18:25:15.755Z,1.00
2018-04-10T18:27:43.228Z,0.60
2018-04-10T18:30:10.658Z,0.90
2018-04-10T18:32:38.142Z,0.60
2018-04-10T18:35:05.558Z,0.80
2018-04-10T18:37:32.994Z,0.97
2018-04-10T18:40:00.425Z,0.90
2018-04-10T18:42:27.860Z,0.90
2018-04-10T18:44:55.305Z,1.03
2018-04-10T18:47:22.748Z,0.90
2018-04-10T18:49:50.558Z,1.10
2018-04-10T18:52:17.995Z,1.20
2018-04-10T18:54:45.418Z,1.20
2018-04-10T18:57:12.914Z,0.90
2018-04-10T18:59:40.327Z,1.10
2018-04-10T19:02:07.756Z,0.80
2018-04-10T19:04:35.188Z,1.00
2018-04-10T19:07:02.637Z,0.80
2018-04-10T19:09:30.056Z,0.70
2018-04-10T19:11:57.879Z,0.60
2018-04-10T19:14:25.314Z,0.70
2018-04-10T19:16:52.738Z,0.70
2018-04-10T19:19:20.223Z,0.73
2018-04-10T19:21:48.806Z,0.50
2018-04-10T19:24:16.795Z,0.87
2018-04-10T19:26:44.223Z,0.80
2018-04-10T19:29:11.672Z,0.67
2018-04-10T19:31:39.113Z,0.83
2018-04-10T19:45:41.909Z,0.60
2018-04-10T19:59:23.889Z,0.70
2018-04-10T20:07:31.464Z,0.60
2018-04-10T20:12:49.284Z,0.63
2018-04-10T20:15:20.153Z,0.57
2018-04-10T20:17:52.433Z,1.03
2018-04-10T20:23:07.370Z,0.70
2018-04-10T20:25:37.365Z,0.67
2018-04-10T20:28:07.401Z,1.00
2018-04-10T20:30:39.945Z,0.80
2018-04-10T20:33:09.749Z,0.60
2018-04-10T20:39:00.141Z,0.60
2018-04-10T20:41:31.690Z,0.60
2018-04-10T20:47:57.409Z,0.80
2018-04-10T20:55:37.166Z,0.70
2018-04-10T20:58:15.617Z,0.80
2018-04-10T21:03:45.293Z,0.77
2018-04-10T21:06:13.358Z,0.80
2018-04-10T21:08:44.972Z,0.90
2018-04-10T21:11:14.666Z,0.67
2018-04-10T21:17:54.249Z,0.60
2018-04-10T21:20:26.616Z,0.60
2018-04-10T21:22:56.389Z,0.70
2018-04-10T21:28:26.039Z,0.60
2018-04-10T21:30:59.387Z,0.93
2018-04-10T21:33:31.227Z,0.80
2018-04-10T21:36:05.907Z,0.80
2018-04-10T21:38:59.740Z,0.70
2018-04-10T22:52:02.600Z,1.00
2018-04-10T22:54:30.602Z,0.97
2018-04-10T22:56:58.025Z,1.20
2018-04-10T22:59:25.488Z,1.50
2018-04-10T23:02:01.879Z,1.43
2018-04-10T23:04:31.129Z,1.20
2018-04-10T23:07:00.070Z,1.43
2018-04-10T23:09:31.515Z,1.53
2018-04-10T23:11:59.974Z,1.90
2018-04-10T23:14:29.674Z,1.13
2018-04-10T23:16:58.021Z,1.53
2018-04-10T23:19:25.463Z,2.20
2018-04-10T23:21:53.827Z,2.33
2018-04-10T23:24:23.579Z,2.00
2018-04-10T23:26:51.012Z,2.50
2018-04-10T23:29:19.895Z,2.90
2018-04-10T23:31:48.774Z,2.47
2018-04-10T23:34:16.218Z,2.53
2018-04-10T23:36:43.634Z,2.57
2018-04-10T23:39:11.054Z,2.80
2018-04-10T23:41:38.497Z,2.60
2018-04-10T23:44:05.912Z,2.70
2018-04-10T23:46:33.758Z,2.77
2018-04-10T23:49:01.220Z,3.70
2018-04-10T23:51:28.644Z,3.27
2018-04-10T23:53:56.067Z,4.97
2018-04-10T23:56:23.491Z,4.70
2018-04-10T23:58:50.919Z,4.80
